Time;durP1;ratioP1;P1;durP2;ratioP2;P2;SDS_P1;SDS_P2;PMS_P1;PMS_P2;Temp;Humidity;BMP_temperature;BMP_pressure;BME280_temperature;BME280_humidity;BME280_pressure;Samples;Min_cycle;Max_cycle;Signal;HPM_P1;HPM_P2
2022/04/24 00:02:14;;;;;;;13.93;12.53;;;;;;;10.73;80.04;96150.88;4976398;28;20670;-72
2022/04/24 00:04:41;;;;;;;13.97;12.60;;;;;;;10.81;79.77;96142.38;4976603;28;20218;-71
2022/04/24 00:07:08;;;;;;;14.93;13.43;;;;;;;10.83;79.84;96142.91;4975599;28;20573;-72
2022/04/24 00:09:36;;;;;;;13.17;11.87;;;;;;;10.81;79.56;96140.50;4976589;28;20215;-71
2022/04/24 00:12:02;;;;;;;13.77;12.47;;;;;;;10.84;79.47;96144.50;4976165;28;20583;-72
2022/04/24 00:14:29;;;;;;;13.33;12.03;;;;;;;10.99;78.91;96147.13;4976442;28;20215;-71
2022/04/24 00:16:55;;;;;;;13.80;12.50;;;;;;;10.85;79.93;96146.09;4976723;28;20228;-72
2022/04/24 00:19:21;;;;;;;14.80;13.13;;;;;;;10.82;79.53;96141.31;4976276;28;20228;-72
2022/04/24 00:21:48;;;;;;;13.40;12.17;;;;;;;10.93;79.36;96145.56;4976274;28;20210;-72
2022/04/24 00:24:14;;;;;;;14.03;12.73;;;;;;;10.75;80.21;96144.25;4973191;28;20215;-72
2022/04/24 00:26:41;;;;;;;14.70;13.20;;;;;;;10.78;79.90;96143.69;4976199;28;20211;-71
2022/04/24 00:29:07;;;;;;;14.57;13.07;;;;;;;10.68;80.75;96142.91;4976658;28;20525;-72
2022/04/24 00:31:34;;;;;;;14.87;13.43;;;;;;;10.66;80.83;96137.06;4975176;28;20214;-72
2022/04/24 00:34:00;;;;;;;14.20;12.80;;;;;;;10.59;81.24;96125.91;4976035;28;20211;-71
2022/04/24 00:36:27;;;;;;;15.23;13.63;;;;;;;10.62;81.07;96112.06;4975723;28;20216;-72
2022/04/24 00:38:53;;;;;;;14.77;13.27;;;;;;;10.56;81.49;96118.47;4975845;28;20228;-71
2022/04/24 00:41:19;;;;;;;14.63;13.13;;;;;;;10.59;81.18;96108.09;4975664;28;20668;-72
2022/04/24 00:43:53;;;;;;;14.93;13.50;;;;;;;10.62;80.94;96112.06;4976330;28;20212;-72
2022/04/24 00:46:58;;;;;;;15.27;13.03;;;;;;;10.72;80.16;96112.06;4974518;28;20214;-72
2022/04/24 00:49:25;;;;;;;14.40;13.00;;;;;;;10.75;80.49;96111.53;4975614;28;20699;-71
2022/04/24 00:51:53;;;;;;;14.83;13.33;;;;;;;10.90;80.00;96103.56;4974991;28;20214;-72
2022/04/24 00:54:19;;;;;;;14.37;12.90;;;;;;;10.72;80.43;96107.56;4975754;28;20204;-71
2022/04/24 00:56:46;;;;;;;14.10;12.70;;;;;;;10.74;80.28;96105.44;4975286;28;20703;-72
2022/04/24 00:59:15;;;;;;;14.43;12.93;;;;;;;10.83;79.31;96105.69;4975528;28;20322;-72
2022/04/24 01:01:42;;;;;;;15.33;13.83;;;;;;;10.86;79.03;96103.28;4973797;28;20208;-72
2022/04/24 01:04:11;;;;;;;14.97;12.83;;;;;;;10.90;79.73;96100.88;4975338;28;20212;-72
2022/04/24 01:06:42;;;;;;;15.17;13.03;;;;;;;10.84;79.65;96086.03;4975433;28;20212;-72
2022/04/24 01:09:19;;;;;;;14.17;12.87;;;;;;;10.82;79.78;96086.28;4975540;28;20194;-72
2022/04/24 01:11:51;;;;;;;13.47;12.23;;;;;;;10.82;79.19;96086.28;4975471;28;20199;-72
2022/04/24 01:14:19;;;;;;;14.53;13.07;;;;;;;10.91;78.96;96090.00;4975438;28;20195;-72
2022/04/24 01:16:46;;;;;;;14.40;13.00;;;;;;;10.91;79.02;96087.34;4975245;28;20208;-72
2022/04/24 01:19:14;;;;;;;14.70;13.27;;;;;;;10.91;79.44;96089.22;4973322;28;20224;-71
2022/04/24 01:21:45;;;;;;;14.63;13.20;;;;;;;10.79;79.19;96092.16;4975294;28;20212;-72
2022/04/24 01:24:13;;;;;;;14.87;13.27;;;;;;;10.76;79.65;96099.84;4975152;28;20214;-71
2022/04/24 01:26:40;;;;;;;13.63;12.33;;;;;;;10.78;79.63;96100.38;4974240;28;20246;-71
2022/04/24 01:29:06;;;;;;;13.90;12.37;;;;;;;10.76;79.39;96103.31;4974769;28;20568;-72
2022/04/24 01:31:33;;;;;;;13.40;12.20;;;;;;;10.74;79.66;96102.78;4975149;28;20215;-71
2022/04/24 01:34:00;;;;;;;12.90;11.70;;;;;;;10.75;79.01;96108.88;4975067;28;20286;-71
2022/04/24 01:36:27;;;;;;;13.03;11.80;;;;;;;10.73;79.11;96103.84;4973512;28;20215;-72
2022/04/24 01:38:54;;;;;;;13.37;12.17;;;;;;;10.95;78.96;96112.31;4974927;28;20235;-71
2022/04/24 01:41:20;;;;;;;12.53;11.33;;;;;;;10.84;79.70;96109.94;4975500;28;20218;-71
2022/04/24 01:43:48;;;;;;;12.33;11.17;;;;;;;10.78;79.81;96105.72;4974899;28;20208;-71
2022/04/24 01:46:15;;;;;;;11.73;10.53;;;;;;;10.78;79.01;96101.16;4974896;28;20222;-71
2022/04/24 01:48:41;;;;;;;12.67;11.37;;;;;;;10.77;78.64;96114.75;4974455;28;20250;-71
2022/04/24 01:51:09;;;;;;;12.63;11.37;;;;;;;10.73;79.13;96113.69;4973492;28;20212;-71
2022/04/24 01:53:36;;;;;;;13.27;11.90;;;;;;;10.86;79.04;96110.50;4974521;28;20208;-71
2022/04/24 01:56:06;;;;;;;12.67;11.27;;;;;;;10.81;78.98;96116.59;4974787;28;20215;-71
2022/04/24 01:58:33;;;;;;;12.13;10.93;;;;;;;10.73;79.52;96116.34;4971190;28;20227;-71
2022/04/24 02:00:59;;;;;;;11.93;10.83;;;;;;;10.83;79.23;96130.44;4974493;28;20208;-71
2022/04/24 02:03:27;;;;;;;12.03;10.93;;;;;;;10.77;79.47;96143.97;4976772;28;20707;-71
2022/04/24 02:05:54;;;;;;;12.87;11.27;;;;;;;10.72;81.07;96157.25;4978864;28;20266;-72
2022/04/24 02:08:20;;;;;;;12.50;11.37;;;;;;;10.65;81.13;96165.50;4976869;28;20240;-72
2022/04/24 02:10:47;;;;;;;12.03;10.80;;;;;;;10.63;81.68;96164.16;4978746;28;20210;-71
2022/04/24 02:13:14;;;;;;;13.63;12.23;;;;;;;10.56;82.98;96160.97;4977406;28;20206;-71
2022/04/24 02:15:41;;;;;;;12.87;11.77;;;;;;;10.55;83.09;96167.34;4978585;28;20295;-72
2022/04/24 02:18:07;;;;;;;13.07;11.77;;;;;;;10.51;83.99;96175.03;4979036;28;20242;-72
2022/04/24 02:20:34;;;;;;;12.17;11.07;;;;;;;10.50;83.41;96162.81;4978437;28;20228;-71
2022/04/24 02:23:00;;;;;;;12.73;11.43;;;;;;;10.53;83.48;96170.25;4978471;28;20223;-72
2022/04/24 02:25:27;;;;;;;12.67;11.50;;;;;;;10.55;84.19;96183.28;4978476;28;20208;-72
2022/04/24 02:27:55;;;;;;;13.00;11.80;;;;;;;10.55;86.71;96180.63;4978368;28;20223;-71
2022/04/24 02:30:26;;;;;;;14.40;13.00;;;;;;;10.48;86.64;96174.75;4977460;28;20200;-72
2022/04/24 02:32:53;;;;;;;13.27;12.03;;;;;;;10.48;87.62;96177.41;4978413;28;20192;-72
2022/04/24 02:35:19;;;;;;;13.60;12.30;;;;;;;10.49;87.07;96179.00;4978257;28;20663;-71
2022/04/24 02:37:45;;;;;;;14.00;12.77;;;;;;;10.43;90.11;96183.53;4977292;28;20710;-72
2022/04/24 02:40:14;;;;;;;14.10;12.80;;;;;;;10.39;90.80;96181.66;4976868;28;20227;-71
2022/04/24 02:42:41;;;;;;;15.17;13.63;;;;;;;10.31;89.67;96190.13;4978092;28;20207;-71
2022/04/24 02:45:08;;;;;;;15.50;14.00;;;;;;;10.23;93.75;96211.91;4978308;28;20211;-72
2022/04/24 02:47:38;;;;;;;15.80;14.20;;;;;;;10.09;95.86;96216.88;4977729;28;20258;-72
2022/04/24 02:50:05;;;;;;;14.97;13.47;;;;;;;10.05;95.59;96209.72;4978243;28;20211;-71
2022/04/24 02:52:31;;;;;;;16.80;15.10;;;;;;;10.05;98.48;96215.03;4978247;28;20208;-72
2022/04/24 02:54:57;;;;;;;16.83;15.13;;;;;;;9.92;97.03;96195.00;4976283;28;20212;-72
2022/04/24 02:57:24;;;;;;;19.43;17.07;;;;;;;9.95;99.77;96183.06;4977689;28;20228;-72
2022/04/24 02:59:50;;;;;;;16.37;14.77;;;;;;;10.04;98.78;96192.97;4977834;28;20239;-72
2022/04/24 03:02:18;;;;;;;18.53;16.40;;;;;;;10.06;98.17;96190.06;4976484;28;20224;-71
2022/04/24 03:04:46;;;;;;;16.00;14.30;;;;;;;9.99;97.32;96186.81;4977591;28;20663;-72
2022/04/24 03:07:12;;;;;;;16.83;15.23;;;;;;;9.87;96.97;96186.25;4977315;28;20231;-71
2022/04/24 03:09:39;;;;;;;16.97;15.37;;;;;;;9.98;97.47;96190.53;4977494;28;20207;-72
2022/04/24 03:12:06;;;;;;;18.57;16.73;;;;;;;9.87;99.31;96194.22;4976200;28;20275;-72
2022/04/24 03:14:32;;;;;;;18.27;16.43;;;;;;;9.83;98.78;96196.56;4976500;28;20204;-72
2022/04/24 03:16:58;;;;;;;16.97;15.37;;;;;;;9.82;98.60;96196.84;4977577;28;20228;-72
2022/04/24 03:19:25;;;;;;;17.73;15.93;;;;;;;9.81;100.00;96185.44;4977392;28;20232;-72
2022/04/24 03:21:51;;;;;;;19.07;17.07;;;;;;;9.78;100.00;96188.59;4976524;28;20211;-72
2022/04/24 03:24:18;;;;;;;19.03;16.87;;;;;;;9.82;100.00;96186.25;4977401;28;20211;-72
2022/04/24 03:26:44;;;;;;;19.90;17.40;;;;;;;9.70;100.00;96183.78;4977005;28;20210;-72
2022/04/24 03:29:10;;;;;;;18.10;16.30;;;;;;;9.65;100.00;96188.28;4976142;28;20213;-72
2022/04/24 03:31:37;;;;;;;20.77;18.67;;;;;;;9.58;100.00;96185.03;4977161;28;20208;-72
2022/04/24 03:34:03;;;;;;;20.10;18.10;;;;;;;9.49;100.00;96191.88;4977187;28;20208;-72
2022/04/24 03:36:29;;;;;;;19.77;17.73;;;;;;;9.49;100.00;96189.22;4976648;28;20215;-71
2022/04/24 03:38:56;;;;;;;20.33;18.23;;;;;;;9.49;100.00;96184.75;4976763;28;20216;-72
2022/04/24 03:41:22;;;;;;;19.83;17.73;;;;;;;9.56;100.00;96201.22;4976823;28;20211;-72
2022/04/24 03:43:48;;;;;;;21.10;18.97;;;;;;;9.53;100.00;96203.59;4976409;28;20212;-72
2022/04/24 03:46:15;;;;;;;20.97;18.77;;;;;;;9.54;100.00;96200.69;4976755;28;20208;-72
2022/04/24 03:48:41;;;;;;;20.30;18.30;;;;;;;9.60;100.00;96209.47;4976556;28;20251;-72
2022/04/24 03:51:08;;;;;;;20.83;18.63;;;;;;;9.69;100.00;96205.28;4976729;28;20858;-73
2022/04/24 03:53:34;;;;;;;19.63;17.63;;;;;;;9.69;100.00;96203.41;4977295;28;20288;-73
2022/04/24 03:56:01;;;;;;;20.17;17.97;;;;;;;9.76;100.00;96214.59;4975541;28;20230;-72
2022/04/24 03:58:27;;;;;;;20.77;17.27;;;;;;;9.81;100.00;96208.50;4974771;28;20227;-70
2022/04/24 04:00:54;;;;;;;19.83;17.83;;;;;;;9.77;100.00;96213.53;4976617;28;20231;-72
2022/04/24 04:03:20;;;;;;;19.90;17.80;;;;;;;9.84;100.00;96218.59;4976370;28;20208;-72
2022/04/24 04:05:46;;;;;;;19.43;17.53;;;;;;;9.83;100.00;96223.09;4976304;28;20216;-72
2022/04/24 04:08:13;;;;;;;19.77;17.63;;;;;;;9.83;100.00;96214.38;4976328;28;20228;-72
2022/04/24 04:10:39;;;;;;;18.80;16.80;;;;;;;9.86;100.00;96211.19;4976429;28;20203;-72
2022/04/24 04:13:08;;;;;;;19.60;17.57;;;;;;;9.82;100.00;96220.72;4976050;28;20203;-72
2022/04/24 04:15:35;;;;;;;19.93;18.00;;;;;;;9.83;100.00;96214.38;4974581;28;20205;-72
2022/04/24 04:18:01;;;;;;;20.10;18.10;;;;;;;9.82;100.00;96218.09;4974334;28;20224;-72
2022/04/24 04:20:27;;;;;;;20.90;18.70;;;;;;;9.81;100.00;96221.78;4976092;28;20228;-72
2022/04/24 04:22:55;;;;;;;21.10;18.93;;;;;;;9.77;100.00;96220.72;4976286;28;20240;-72
2022/04/24 04:25:25;;;;;;;21.47;19.27;;;;;;;9.76;100.00;96221.75;4976228;28;20208;-72
2022/04/24 04:27:52;;;;;;;22.40;20.10;;;;;;;9.74;100.00;96235.25;4976111;28;20235;-72
2022/04/24 04:30:19;;;;;;;21.50;19.40;;;;;;;9.70;100.00;96230.75;4975883;28;20208;-72
2022/04/24 04:32:46;;;;;;;22.10;19.90;;;;;;;9.65;100.00;96234.16;4974972;28;20215;-72
2022/04/24 04:35:12;;;;;;;22.03;19.80;;;;;;;9.70;100.00;96239.50;4975537;28;20207;-72
2022/04/24 04:37:40;;;;;;;22.83;20.37;;;;;;;9.68;100.00;96241.59;4973650;28;20236;-72
2022/04/24 04:40:08;;;;;;;22.57;20.23;;;;;;;9.69;100.00;96255.69;4975717;28;20259;-72
2022/04/24 04:42:35;;;;;;;23.23;20.57;;;;;;;9.65;100.00;96260.69;4975664;28;20215;-72
2022/04/24 04:45:03;;;;;;;23.70;21.17;;;;;;;9.50;100.00;96294.28;4974595;28;20230;-72
2022/04/24 04:47:31;;;;;;;31.43;23.97;;;;;;;9.48;100.00;96293.72;4975025;28;20777;-69
2022/04/24 04:49:57;;;;;;;19.47;15.23;;;;;;;9.33;100.00;96293.63;4975399;28;20232;-68
2022/04/24 04:52:24;;;;;;;9.20;6.50;;;;;;;8.90;100.00;96291.94;4973894;28;20678;-69
2022/04/24 04:54:50;;;;;;;6.90;6.20;;;;;;;8.81;100.00;96300.56;4975197;28;20594;-69
2022/04/24 04:57:17;;;;;;;11.47;5.50;;;;;;;8.73;100.00;96306.34;4975691;28;20238;-69
2022/04/24 04:59:43;;;;;;;4.87;3.20;;;;;;;8.61;100.00;96316.25;4975636;28;20228;-69
2022/04/24 05:02:10;;;;;;;2.63;2.10;;;;;;;8.55;100.00;96317.25;4975720;28;20203;-69
2022/04/24 05:04:36;;;;;;;1.77;1.20;;;;;;;8.40;100.00;96311.78;4975504;28;20204;-69
2022/04/24 05:07:03;;;;;;;1.40;0.90;;;;;;;8.31;100.00;96313.25;4973871;28;20690;-69
2022/04/24 05:09:29;;;;;;;1.90;1.00;;;;;;;8.23;100.00;96308.41;4975362;28;20299;-69
2022/04/24 05:11:56;;;;;;;1.70;0.67;;;;;;;8.25;100.00;96317.69;4973387;28;20215;-70
2022/04/24 05:14:22;;;;;;;1.27;0.83;;;;;;;8.20;100.00;96311.50;4975094;28;20544;-69
2022/04/24 05:16:48;;;;;;;0.93;0.70;;;;;;;8.18;100.00;96316.22;4975223;28;20299;-69
2022/04/24 05:19:15;;;;;;;1.70;0.60;;;;;;;8.10;100.00;96314.03;4975267;28;20307;-69
2022/04/24 05:21:41;;;;;;;0.50;0.40;;;;;;;8.06;100.00;96326.16;4975284;28;20208;-70
2022/04/24 05:24:07;;;;;;;2.37;0.50;;;;;;;7.98;100.00;96324.72;4975262;28;20215;-69
2022/04/24 05:26:34;;;;;;;0.57;0.50;;;;;;;7.98;100.00;96334.50;4973904;28;20216;-70
2022/04/24 05:29:00;;;;;;;1.27;0.50;;;;;;;7.95;100.00;96332.31;4975171;28;20208;-70
2022/04/24 05:31:27;;;;;;;0.37;0.30;;;;;;;7.85;100.00;96329.53;4974833;28;20258;-69
2022/04/24 05:33:55;;;;;;;2.03;0.40;;;;;;;7.81;100.00;96339.00;4975052;28;20551;-70
2022/04/24 05:36:21;;;;;;;0.93;0.47;;;;;;;7.69;100.00;96346.25;4974975;28;20211;-69
2022/04/24 05:38:47;;;;;;;0.27;0.27;;;;;;;7.67;100.00;96349.13;4974550;28;20236;-69
2022/04/24 05:41:14;;;;;;;0.30;0.30;;;;;;;7.61;100.00;96355.38;4974883;28;20227;-69
2022/04/24 05:43:40;;;;;;;1.27;0.37;;;;;;;7.62;100.00;96354.34;4972926;28;20667;-69
2022/04/24 05:46:06;;;;;;;0.67;0.33;;;;;;;7.53;100.00;96350.50;4974877;28;20226;-69
2022/04/24 05:48:32;;;;;;;0.37;0.30;;;;;;;7.53;100.00;96357.63;4974715;28;20238;-69
2022/04/24 05:50:59;;;;;;;1.67;0.50;;;;;;;7.54;100.00;96353.94;4974893;28;20227;-69
2022/04/24 05:53:25;;;;;;;1.90;0.30;;;;;;;7.53;100.00;96362.91;4974796;28;20212;-69
2022/04/24 05:55:51;;;;;;;0.33;0.30;;;;;;;7.44;100.00;96364.34;4974851;28;20223;-69
2022/04/24 05:58:18;;;;;;;2.00;0.33;;;;;;;7.47;100.00;96348.81;4974735;28;20236;-69
2022/04/24 06:00:44;;;;;;;0.30;0.30;;;;;;;7.51;100.00;96349.16;4972827;28;20231;-69
2022/04/24 06:03:11;;;;;;;0.30;0.30;;;;;;;7.44;100.00;96354.59;4975032;28;20227;-70
2022/04/24 06:05:37;;;;;;;1.70;0.30;;;;;;;7.44;100.00;96348.50;4974680;28;20208;-70
2022/04/24 06:08:04;;;;;;;0.40;0.37;;;;;;;7.50;100.00;96347.53;4974583;28;20228;-69
2022/04/24 06:10:30;;;;;;;0.90;0.30;;;;;;;7.48;100.00;96339.03;4974413;28;20546;-69
2022/04/24 06:12:57;;;;;;;0.33;0.30;;;;;;;7.43;100.00;96345.03;4974665;28;20208;-70
2022/04/24 06:15:26;;;;;;;0.87;0.30;;;;;;;7.45;100.00;96347.44;4974798;28;20207;-70
2022/04/24 06:17:54;;;;;;;0.50;0.33;;;;;;;7.42;100.00;96338.16;4972412;28;20731;-70
2022/04/24 06:20:23;;;;;;;0.50;0.20;;;;;;;7.40;100.00;96342.09;4974545;28;20238;-69
2022/04/24 06:22:52;;;;;;;0.30;0.30;;;;;;;7.41;100.00;96336.56;4974341;28;20703;-69
2022/04/24 06:25:21;;;;;;;0.23;0.23;;;;;;;7.45;100.00;96348.25;4974504;28;20230;-70
2022/04/24 06:27:48;;;;;;;0.40;0.40;;;;;;;7.44;100.00;96341.38;4974123;28;20591;-70
2022/04/24 06:30:16;;;;;;;1.07;0.50;;;;;;;7.44;100.00;96341.38;4974250;28;20287;-69
2022/04/24 06:32:44;;;;;;;0.33;0.20;;;;;;;7.44;100.00;96361.72;4974031;28;20215;-70
2022/04/24 06:35:13;;;;;;;0.93;0.40;;;;;;;7.44;100.00;96351.94;4970080;28;20207;-69
2022/04/24 06:37:41;;;;;;;0.63;0.33;;;;;;;7.46;100.00;96359.66;4974312;28;20665;-70
2022/04/24 06:40:09;;;;;;;0.20;0.20;;;;;;;7.47;100.00;96350.66;4974238;28;20234;-70
2022/04/24 06:42:36;;;;;;;0.30;0.20;;;;;;;7.45;100.00;96352.72;4974338;28;20204;-70
2022/04/24 06:45:03;;;;;;;0.23;0.23;;;;;;;7.52;100.00;96361.31;4974344;28;20262;-70
2022/04/24 06:47:29;;;;;;;0.40;0.20;;;;;;;7.58;100.00;96357.69;4972837;28;20734;-70
2022/04/24 06:49:56;;;;;;;0.30;0.30;;;;;;;7.63;100.00;96361.25;4975219;28;20637;-70
2022/04/24 06:52:22;;;;;;;0.20;0.20;;;;;;;7.67;100.00;96362.34;4977983;28;20208;-71
2022/04/24 06:54:49;;;;;;;0.20;0.20;;;;;;;7.73;100.00;96360.56;4977973;28;20210;-70
2022/04/24 06:57:15;;;;;;;0.60;0.23;;;;;;;7.73;100.00;96366.69;4977840;28;20235;-70
2022/04/24 06:59:41;;;;;;;0.47;0.20;;;;;;;7.75;100.00;96359.31;4977764;28;20230;-70
2022/04/24 07:02:08;;;;;;;0.40;0.23;;;;;;;7.78;100.00;96360.69;4977773;28;20207;-70
2022/04/24 07:04:34;;;;;;;0.27;0.20;;;;;;;7.77;100.00;96367.78;4975596;28;20663;-70
2022/04/24 07:07:00;;;;;;;0.10;0.10;;;;;;;7.84;100.00;96362.34;4977610;28;20232;-70
2022/04/24 07:09:29;;;;;;;0.20;0.20;;;;;;;7.85;100.00;96366.59;4977305;28;20543;-70
2022/04/24 07:11:55;;;;;;;0.50;0.20;;;;;;;7.84;100.00;96363.16;4977655;28;20209;-70
2022/04/24 07:14:22;;;;;;;0.40;0.20;;;;;;;7.84;100.00;96373.75;4977632;28;20205;-70
2022/04/24 07:16:48;;;;;;;0.83;0.20;;;;;;;7.83;100.00;96382.69;4977556;28;20215;-70
2022/04/24 07:19:14;;;;;;;0.30;0.30;;;;;;;7.86;100.00;96387.50;4977399;28;20207;-70
2022/04/24 07:21:41;;;;;;;1.80;0.30;;;;;;;7.84;100.00;96386.97;4975655;28;20234;-71
2022/04/24 07:24:08;;;;;;;0.20;0.20;;;;;;;7.84;100.00;96389.59;4977528;28;20561;-70
2022/04/24 07:26:34;;;;;;;0.20;0.20;;;;;;;7.84;100.00;96396.72;4977194;28;20239;-71
2022/04/24 07:29:01;;;;;;;0.30;0.30;;;;;;;7.84;100.00;96408.13;4975724;28;20292;-70
2022/04/24 07:31:28;;;;;;;0.30;0.30;;;;;;;7.95;100.00;96403.75;4972672;28;20596;-70
2022/04/24 07:33:56;;;;;;;0.30;0.30;;;;;;;7.87;100.00;96406.84;4977132;28;20214;-71
2022/04/24 07:36:23;;;;;;;0.30;0.20;;;;;;;7.85;100.00;96411.56;4977102;28;20554;-70
2022/04/24 07:38:50;;;;;;;0.20;0.20;;;;;;;7.92;100.00;96413.00;4976141;28;20600;-71
2022/04/24 07:41:17;;;;;;;0.20;0.20;;;;;;;7.94;100.00;96418.03;4976933;28;20224;-71
2022/04/24 07:43:48;;;;;;;0.20;0.20;;;;;;;7.92;100.00;96425.44;4977055;28;20207;-70
2022/04/24 07:46:15;;;;;;;0.30;0.30;;;;;;;8.02;100.00;96423.75;4976731;28;20196;-71
2022/04/24 07:48:41;;;;;;;0.20;0.20;;;;;;;7.93;100.00;96419.91;4976362;28;20236;-70
2022/04/24 07:51:08;;;;;;;0.30;0.30;;;;;;;7.91;100.00;96416.69;4977000;28;20219;-70
2022/04/24 07:53:34;;;;;;;0.20;0.20;;;;;;;7.97;100.00;96413.06;4977251;28;20216;-70
2022/04/24 07:56:00;;;;;;;0.23;0.23;;;;;;;8.00;100.00;96414.41;4973947;28;20770;-71
2022/04/24 07:58:27;;;;;;;0.57;0.30;;;;;;;8.03;100.00;96414.75;4977032;28;20227;-71
2022/04/24 08:00:53;;;;;;;0.20;0.20;;;;;;;8.02;100.00;96404.41;4975989;28;20220;-71
2022/04/24 08:03:20;;;;;;;0.20;0.20;;;;;;;8.02;100.00;96409.69;4976663;28;20212;-70
2022/04/24 08:05:51;;;;;;;0.20;0.20;;;;;;;8.01;100.00;96406.25;4976660;28;20633;-70
2022/04/24 08:08:20;;;;;;;0.20;0.20;;;;;;;8.15;100.00;96414.66;4974900;28;20622;-70
2022/04/24 08:10:52;;;;;;;0.23;0.23;;;;;;;8.15;100.00;96412.00;4976565;28;20204;-71
2022/04/24 08:13:19;;;;;;;0.20;0.20;;;;;;;8.23;100.00;96415.06;4977001;28;20546;-71
2022/04/24 08:15:47;;;;;;;0.53;0.30;;;;;;;8.22;100.00;96415.31;4976507;28;20227;-71
2022/04/24 08:18:14;;;;;;;0.77;0.20;;;;;;;8.20;100.00;96415.53;4976395;28;20232;-71
2022/04/24 08:20:42;;;;;;;0.60;0.30;;;;;;;8.22;100.00;96423.25;4976337;28;20228;-71
2022/04/24 08:23:10;;;;;;;0.90;0.40;;;;;;;8.21;100.00;96419.00;4975425;28;20216;-71
2022/04/24 08:25:37;;;;;;;0.30;0.30;;;;;;;8.21;100.00;96422.47;4976027;28;20687;-71
2022/04/24 08:28:10;;;;;;;0.30;0.30;;;;;;;8.19;100.00;96419.22;4976214;28;20224;-71
2022/04/24 08:30:41;;;;;;;0.40;0.30;;;;;;;8.30;100.00;96428.94;4974524;28;20224;-71
2022/04/24 08:33:09;;;;;;;0.40;0.40;;;;;;;8.28;100.00;96440.81;4976048;28;20196;-70
2022/04/24 08:35:35;;;;;;;0.23;0.23;;;;;;;8.30;100.00;96444.00;4975958;28;20210;-71
2022/04/24 08:38:02;;;;;;;2.97;0.40;;;;;;;8.33;100.00;96446.19;4975918;28;20228;-71
2022/04/24 08:40:28;;;;;;;0.27;0.27;;;;;;;8.37;100.00;96452.59;4975843;28;20228;-71
2022/04/24 08:42:55;;;;;;;0.73;0.50;;;;;;;8.36;100.00;96454.44;4975540;28;20575;-71
2022/04/24 08:45:26;;;;;;;0.30;0.30;;;;;;;8.37;100.00;96452.59;4974970;28;20235;-71
2022/04/24 08:47:52;;;;;;;0.80;0.40;;;;;;;8.42;100.00;96453.44;4975587;28;20239;-71
2022/04/24 08:50:19;;;;;;;1.57;0.40;;;;;;;8.44;100.00;96458.50;4975802;28;20246;-71
2022/04/24 08:52:48;;;;;;;0.80;0.50;;;;;;;8.48;100.00;96459.63;4975812;28;20219;-71
2022/04/24 08:55:16;;;;;;;0.50;0.50;;;;;;;8.51;100.00;96459.94;4974302;28;20770;-71
2022/04/24 08:57:42;;;;;;;0.70;0.50;;;;;;;8.59;100.00;96461.34;4975611;28;20250;-71
2022/04/24 09:00:09;;;;;;;0.70;0.50;;;;;;;8.67;100.00;96463.59;4974035;28;20204;-71
2022/04/24 09:02:36;;;;;;;1.23;0.67;;;;;;;8.75;100.00;96468.47;4955836;28;20240;-71
2022/04/24 09:05:06;;;;;;;1.00;0.70;;;;;;;8.81;100.00;96473.59;4955865;29;20208;-71
2022/04/24 09:07:34;;;;;;;1.03;0.73;;;;;;;8.81;100.00;96470.94;4955734;28;20259;-71
2022/04/24 09:10:07;;;;;;;0.70;0.60;;;;;;;8.89;100.00;96477.66;4955928;28;20707;-71
2022/04/24 09:12:33;;;;;;;0.50;0.50;;;;;;;8.91;100.00;96480.88;4955409;28;20248;-71
2022/04/24 09:15:00;;;;;;;1.43;0.67;;;;;;;8.81;100.00;96483.38;4961068;28;20204;-71
2022/04/24 09:17:29;;;;;;;1.03;0.80;;;;;;;8.87;100.00;96485.06;4975219;28;20228;-71
2022/04/24 09:19:57;;;;;;;1.77;0.50;;;;;;;9.00;100.00;96480.19;4975143;28;20557;-71
2022/04/24 09:22:24;;;;;;;1.43;0.60;;;;;;;9.00;100.00;96482.06;4974908;28;20232;-71
2022/04/24 09:24:56;;;;;;;1.67;0.80;;;;;;;9.08;100.00;96482.41;4974776;28;20683;-71
2022/04/24 09:27:27;;;;;;;2.10;0.70;;;;;;;9.07;100.00;96480.81;4975124;28;20231;-71
2022/04/24 09:29:58;;;;;;;1.67;1.00;;;;;;;9.10;100.00;96488.25;4973555;28;20682;-71
2022/04/24 09:32:26;;;;;;;1.53;0.77;;;;;;;9.09;100.00;96481.34;4974192;28;20200;-71
2022/04/24 09:34:53;;;;;;;0.80;0.80;;;;;;;9.06;100.00;96483.69;4974881;28;20218;-71
2022/04/24 09:37:20;;;;;;;0.70;0.60;;;;;;;9.01;100.00;96483.66;4975423;28;20258;-71
2022/04/24 09:39:48;;;;;;;2.07;0.80;;;;;;;8.92;100.00;96480.59;4975059;28;20208;-71
2022/04/24 09:42:17;;;;;;;2.87;0.90;;;;;;;9.00;100.00;96482.84;4974551;28;20224;-71
2022/04/24 09:44:48;;;;;;;2.17;0.80;;;;;;;9.12;100.00;96486.16;4973325;28;20211;-72
2022/04/24 09:47:18;;;;;;;1.73;0.90;;;;;;;9.05;100.00;96482.91;4974327;28;20716;-71
2022/04/24 09:49:47;;;;;;;1.17;0.70;;;;;;;9.14;100.00;96492.00;4974641;28;20698;-71
2022/04/24 09:52:16;;;;;;;2.73;0.87;;;;;;;9.16;100.00;96495.22;4975014;28;20207;-71
2022/04/24 09:54:44;;;;;;;1.63;0.70;;;;;;;9.18;100.00;96502.91;4974744;28;20234;-71
2022/04/24 09:57:13;;;;;;;1.00;0.77;;;;;;;9.19;100.00;96501.88;4974755;28;20237;-71
2022/04/24 09:59:44;;;;;;;1.00;0.90;;;;;;;9.19;100.00;96504.53;4973245;28;20208;-71
2022/04/24 10:02:12;;;;;;;1.33;0.80;;;;;;;9.31;100.00;96502.53;4974338;28;20675;-72
2022/04/24 10:04:40;;;;;;;2.03;1.00;;;;;;;9.26;100.00;96511.25;4973637;28;20223;-71
2022/04/24 10:07:11;;;;;;;1.10;0.80;;;;;;;9.21;100.00;96507.72;4974500;28;20232;-71
2022/04/24 10:09:40;;;;;;;0.90;0.90;;;;;;;9.30;100.00;96511.56;4974620;28;20196;-71
2022/04/24 10:12:10;;;;;;;1.40;0.77;;;;;;;9.33;100.00;96513.72;4973456;28;20215;-71
2022/04/24 10:15:16;;;;;;;1.83;0.87;;;;;;;9.41;100.00;96507.97;4974722;28;20212;-71
2022/04/24 10:18:24;;;;;;;0.63;0.63;;;;;;;9.27;100.00;96517.34;4952326;28;20232;-71
2022/04/24 10:21:30;;;;;;;1.77;0.93;;;;;;;9.31;100.00;96516.63;4964049;28;20215;-72
2022/04/24 10:24:07;;;;;;;1.37;0.83;;;;;;;9.36;100.00;96516.66;4975334;28;20202;-71
2022/04/24 10:26:34;;;;;;;1.23;0.80;;;;;;;9.33;100.00;96522.47;4974699;28;20199;-71
2022/04/24 10:29:09;;;;;;;1.30;0.70;;;;;;;9.27;100.00;96514.69;4977051;28;20207;-71
2022/04/24 10:31:44;;;;;;;1.03;0.70;;;;;;;9.36;100.00;96516.66;4978304;28;20204;-72
2022/04/24 10:34:13;;;;;;;0.70;0.70;;;;;;;9.27;100.00;96520.00;4978820;28;20298;-71
2022/04/24 10:36:56;;;;;;;0.80;0.80;;;;;;;9.34;100.00;96521.44;4978097;28;20204;-71
2022/04/24 10:39:25;;;;;;;1.87;1.30;;;;;;;9.51;100.00;96526.66;4978169;28;20203;-72
2022/04/24 10:41:57;;;;;;;1.23;1.10;;;;;;;9.51;100.00;96534.59;4977060;28;20254;-71
2022/04/24 10:44:24;;;;;;;1.47;1.00;;;;;;;9.48;100.00;96527.94;4978125;28;20309;-72
2022/04/24 10:46:53;;;;;;;2.47;1.40;;;;;;;9.59;100.00;96527.00;4977840;28;20214;-72
2022/04/24 10:49:20;;;;;;;2.00;1.10;;;;;;;9.47;100.00;96534.31;4978033;28;20193;-71
2022/04/24 10:52:03;;;;;;;1.00;0.90;;;;;;;9.46;100.00;96535.34;4977974;28;20576;-71
2022/04/24 10:54:34;;;;;;;2.67;0.90;;;;;;;9.42;100.00;96530.78;4978011;28;20196;-71
2022/04/24 10:57:01;;;;;;;2.03;0.83;;;;;;;9.27;100.00;96538.56;4976684;28;20232;-72
2022/04/24 10:59:28;;;;;;;1.10;0.90;;;;;;;9.34;100.00;96539.19;4976518;28;20655;-71
2022/04/24 11:01:57;;;;;;;1.00;0.90;;;;;;;9.29;100.00;96541.78;4975845;28;20235;-72
2022/04/24 11:04:25;;;;;;;2.50;0.93;;;;;;;9.30;100.00;96536.22;4977723;28;20207;-71
2022/04/24 11:06:56;;;;;;;5.00;1.00;;;;;;;9.28;100.00;96537.53;4974926;28;20239;-71
2022/04/24 11:09:24;;;;;;;1.83;0.97;;;;;;;9.19;100.00;96539.00;4977382;28;20208;-71
2022/04/24 11:12:01;;;;;;;3.73;1.00;;;;;;;9.26;100.00;96542.25;4977667;28;20211;-71
2022/04/24 11:14:29;;;;;;;1.67;1.00;;;;;;;9.21;100.00;96548.31;4977901;28;20247;-71
2022/04/24 11:16:58;;;;;;;1.00;0.90;;;;;;;9.24;100.00;96544.38;4975918;28;20263;-71
2022/04/24 11:19:38;;;;;;;1.13;0.97;;;;;;;9.37;100.00;96539.47;4977555;28;20211;-71
2022/04/24 11:22:08;;;;;;;2.97;1.13;;;;;;;9.44;100.00;96549.91;4977331;28;20220;-71
2022/04/24 11:24:37;;;;;;;1.67;1.30;;;;;;;9.53;100.00;96553.72;4976303;28;20204;-71
2022/04/24 11:27:13;;;;;;;1.63;1.10;;;;;;;9.47;100.00;96558.19;4977230;28;20223;-71
2022/04/24 11:29:43;;;;;;;1.13;1.03;;;;;;;9.56;100.00;96553.22;4977323;28;20199;-71
2022/04/24 11:32:10;;;;;;;1.20;0.93;;;;;;;9.55;100.00;96551.63;4975811;28;20211;-71